createdAt,value
2022-12-08T00:01:09.072Z,4.50
2022-12-08T00:03:38.855Z,4.55
2022-12-08T00:06:07.658Z,3.60
2022-12-08T00:08:35.912Z,3.47
2022-12-08T00:11:02.625Z,2.58
2022-12-08T00:13:29.499Z,2.50
2022-12-08T00:16:00.722Z,2.10
2022-12-08T00:18:27.168Z,2.10
2022-12-08T00:20:57.768Z,2.00
2022-12-08T00:23:24.423Z,2.10
2022-12-08T00:25:51.143Z,1.67
2022-12-08T00:28:17.690Z,1.90
2022-12-08T00:30:44.577Z,1.70
2022-12-08T00:33:12.132Z,1.92
2022-12-08T00:35:42.926Z,2.05
2022-12-08T00:38:09.887Z,1.67
2022-12-08T00:40:36.496Z,1.80
2022-12-08T00:43:03.207Z,1.80
2022-12-08T00:45:29.709Z,1.80
2022-12-08T00:47:56.207Z,1.80
2022-12-08T00:50:22.798Z,1.90
2022-12-08T00:52:49.302Z,1.50
2022-12-08T00:55:15.987Z,1.67
2022-12-08T00:57:42.582Z,1.50
2022-12-08T01:00:09.569Z,1.45
2022-12-08T01:02:39.384Z,1.30
2022-12-08T01:05:06.434Z,1.30
2022-12-08T01:07:33.624Z,1.40
2022-12-08T01:10:00.843Z,1.48
2022-12-08T01:12:29.605Z,1.80
2022-12-08T01:15:01.937Z,1.80
2022-12-08T01:17:28.852Z,1.95
2022-12-08T01:19:55.294Z,2.00
2022-12-08T01:22:21.771Z,1.70
2022-12-08T01:24:48.326Z,1.92
2022-12-08T01:27:16.120Z,1.83
2022-12-08T01:29:42.589Z,1.90
2022-12-08T01:32:09.595Z,2.03
2022-12-08T01:34:36.150Z,2.10
2022-12-08T01:37:02.899Z,2.00
2022-12-08T01:39:29.500Z,2.22
2022-12-08T01:41:56.014Z,1.67
2022-12-08T01:44:22.417Z,1.73
2022-12-08T01:46:48.987Z,1.73
2022-12-08T01:49:18.594Z,1.70
2022-12-08T01:51:57.072Z,1.65
2022-12-08T01:54:26.737Z,1.88
2022-12-08T01:57:00.774Z,1.80
2022-12-08T01:59:30.467Z,1.70
2022-12-08T02:01:57.888Z,1.70
2022-12-08T02:04:24.384Z,1.73
2022-12-08T02:06:51.671Z,1.65
2022-12-08T02:09:20.106Z,1.70
2022-12-08T02:11:46.988Z,1.98
2022-12-08T02:14:14.466Z,2.45
2022-12-08T02:17:03.261Z,2.40
2022-12-08T02:19:53.850Z,3.55
2022-12-08T02:22:43.678Z,5.93
2022-12-08T02:25:22.724Z,6.15
2022-12-08T02:28:06.216Z,6.80
2022-12-08T02:30:41.679Z,7.45
2022-12-08T02:33:27.849Z,8.05
2022-12-08T02:35:59.678Z,8.23
2022-12-08T02:38:45.759Z,9.05
2022-12-08T02:41:37.905Z,8.52
2022-12-08T02:44:07.108Z,9.10
2022-12-08T02:46:44.406Z,8.98
2022-12-08T02:49:10.913Z,9.03
2022-12-08T02:51:37.349Z,8.60
2022-12-08T02:54:03.884Z,8.43
2022-12-08T02:56:57.497Z,7.93
2022-12-08T02:59:51.300Z,7.53
2022-12-08T03:02:20.443Z,7.10
2022-12-08T03:04:58.831Z,6.78
2022-12-08T03:07:45.657Z,5.10
2022-12-08T03:10:33.043Z,4.47
2022-12-08T03:13:07.527Z,2.42
2022-12-08T03:15:36.976Z,1.30
2022-12-08T03:18:06.418Z,1.00
2022-12-08T03:20:34.545Z,0.85
2022-12-08T03:23:05.323Z,0.93
2022-12-08T03:25:36.334Z,1.08
2022-12-08T03:28:02.879Z,1.10
2022-12-08T03:30:32.367Z,1.27
2022-12-08T03:33:07.707Z,1.30
2022-12-08T03:35:38.143Z,1.50
2022-12-08T03:38:16.473Z,1.40
2022-12-08T03:40:44.265Z,1.17
2022-12-08T03:43:10.763Z,1.20
2022-12-08T03:45:37.153Z,1.30
2022-12-08T03:48:03.732Z,1.20
2022-12-08T03:50:30.192Z,1.20
2022-12-08T03:52:56.640Z,1.07
2022-12-08T03:55:23.045Z,1.17
2022-12-08T03:57:49.489Z,1.02
2022-12-08T04:00:16.899Z,0.80
2022-12-08T04:02:43.724Z,1.00
2022-12-08T04:05:10.497Z,1.10
2022-12-08T04:07:37.001Z,1.27
2022-12-08T04:10:04.490Z,1.30
2022-12-08T04:12:31.095Z,1.30
2022-12-08T04:14:57.519Z,1.35
2022-12-08T04:17:23.901Z,1.37
2022-12-08T04:19:50.293Z,1.30
2022-12-08T04:22:16.739Z,1.20
2022-12-08T04:24:43.145Z,1.40
2022-12-08T04:27:09.543Z,1.48
2022-12-08T04:29:36.021Z,1.40
2022-12-08T04:32:02.466Z,1.50
2022-12-08T04:34:28.898Z,1.80
2022-12-08T04:36:55.307Z,1.60
2022-12-08T04:39:21.760Z,1.83
2022-12-08T04:41:48.209Z,2.20
2022-12-08T04:44:14.616Z,2.28
2022-12-08T04:46:43.531Z,2.38
2022-12-08T04:49:10.453Z,2.15
2022-12-08T04:51:37.001Z,2.65
2022-12-08T04:54:03.472Z,1.90
2022-12-08T04:56:29.895Z,1.30
2022-12-08T04:58:56.312Z,1.60
2022-12-08T05:01:22.870Z,1.70
2022-12-08T05:03:49.296Z,2.45
2022-12-08T05:06:16.254Z,2.40
2022-12-08T05:08:43.236Z,2.45
2022-12-08T05:11:11.167Z,2.60
2022-12-08T05:13:37.585Z,2.85
2022-12-08T05:16:09.468Z,2.75
2022-12-08T05:18:36.826Z,2.80
2022-12-08T05:21:04.096Z,2.90
2022-12-08T05:23:31.002Z,2.80
2022-12-08T05:25:57.632Z,3.10
2022-12-08T05:31:15.133Z,3.80
2022-12-08T05:33:42.289Z,3.50
2022-12-08T05:36:09.990Z,3.30
2022-12-08T05:38:36.384Z,3.00
2022-12-08T05:41:02.819Z,3.10
2022-12-08T05:43:29.323Z,2.90
2022-12-08T05:45:55.852Z,2.78
2022-12-08T05:48:22.379Z,2.80
2022-12-08T05:50:50.087Z,2.28
2022-12-08T05:53:17.745Z,2.40
2022-12-08T05:55:44.606Z,2.67
2022-12-08T05:58:20.843Z,2.70
2022-12-08T06:00:48.607Z,2.78
2022-12-08T06:03:16.658Z,3.10
2022-12-08T06:05:45.586Z,2.80
2022-12-08T06:08:12.950Z,2.50
2022-12-08T06:10:41.332Z,2.70
2022-12-08T06:13:08.538Z,3.10
2022-12-08T06:15:38.864Z,3.50
2022-12-08T06:18:05.491Z,3.35
2022-12-08T06:20:32.058Z,6.33
2022-12-08T06:22:58.516Z,7.50
2022-12-08T06:25:25.196Z,6.72
2022-12-08T06:27:51.638Z,4.80
2022-12-08T06:30:18.210Z,5.07
2022-12-08T06:32:44.607Z,3.70
2022-12-08T06:35:11.068Z,3.30
2022-12-08T06:37:37.492Z,3.50
2022-12-08T06:40:04.486Z,3.60
2022-12-08T06:42:31.147Z,3.85
2022-12-08T06:44:57.646Z,3.97
2022-12-08T06:47:26.300Z,3.92
2022-12-08T06:49:52.946Z,4.60
2022-12-08T06:52:19.347Z,5.85
2022-12-08T06:54:45.747Z,5.15
2022-12-08T06:57:12.145Z,5.10
2022-12-08T06:59:39.505Z,4.50
2022-12-08T07:02:06.057Z,4.53
2022-12-08T07:04:32.531Z,4.75
2022-12-08T07:06:58.964Z,5.53
2022-12-08T07:09:25.394Z,4.90
2022-12-08T07:11:51.862Z,4.50
2022-12-08T07:14:18.298Z,4.18
2022-12-08T07:16:44.816Z,3.15
2022-12-08T07:19:11.298Z,3.35
2022-12-08T07:21:37.682Z,2.83
2022-12-08T07:24:04.335Z,2.60
2022-12-08T07:26:30.716Z,2.17
2022-12-08T07:28:57.172Z,2.22
2022-12-08T07:31:24.850Z,1.67
2022-12-08T07:33:52.503Z,1.70
2022-12-08T07:36:19.273Z,1.35
2022-12-08T07:38:45.907Z,1.40
2022-12-08T07:41:17.445Z,1.30
2022-12-08T07:43:44.269Z,1.55
2022-12-08T07:46:15.526Z,1.60
2022-12-08T07:48:42.813Z,2.03
2022-12-08T07:51:11.621Z,2.13
2022-12-08T07:53:42.425Z,2.90
2022-12-08T07:56:10.928Z,2.60
2022-12-08T07:58:37.453Z,3.20
2022-12-08T08:01:04.486Z,2.97
2022-12-08T08:03:31.149Z,3.30
2022-12-08T08:06:04.769Z,3.70
2022-12-08T08:08:31.753Z,3.90
2022-12-08T08:10:58.686Z,3.47
2022-12-08T08:13:25.150Z,4.68
2022-12-08T08:15:51.663Z,3.50
2022-12-08T08:18:18.164Z,3.42
2022-12-08T08:20:44.613Z,3.45
2022-12-08T08:23:11.049Z,3.20
2022-12-08T08:25:37.455Z,4.85
2022-12-08T08:28:03.880Z,5.38
2022-12-08T08:30:30.293Z,4.20
2022-12-08T08:32:56.684Z,4.45
2022-12-08T08:35:23.065Z,4.37
2022-12-08T08:37:49.743Z,5.03
2022-12-08T08:40:17.449Z,4.75
2022-12-08T08:42:43.852Z,5.47
2022-12-08T08:45:10.814Z,5.50
2022-12-08T08:47:37.297Z,5.30
2022-12-08T08:50:04.632Z,5.15
2022-12-08T08:52:31.249Z,4.90
2022-12-08T08:54:57.689Z,5.20
2022-12-08T08:57:25.968Z,4.75
2022-12-08T08:59:53.248Z,5.00
2022-12-08T09:02:20.950Z,4.38
2022-12-08T09:04:47.538Z,4.63
2022-12-08T09:07:15.012Z,5.60
2022-12-08T09:09:41.621Z,5.55
2022-12-08T09:12:08.295Z,5.97
2022-12-08T09:14:34.925Z,6.30
2022-12-08T09:17:01.366Z,5.82
2022-12-08T09:19:27.835Z,5.45
2022-12-08T09:21:54.325Z,4.35
2022-12-08T09:24:20.776Z,5.27
2022-12-08T09:26:47.208Z,4.28
2022-12-08T09:29:13.699Z,5.53
2022-12-08T09:31:40.990Z,4.57
2022-12-08T09:34:07.513Z,3.97
2022-12-08T09:36:33.941Z,3.67
2022-12-08T09:39:00.466Z,4.20
2022-12-08T09:41:58.313Z,4.25
2022-12-08T09:45:01.970Z,4.28
2022-12-08T09:47:42.415Z,3.95
2022-12-08T09:50:30.934Z,4.23
2022-12-08T09:53:06.124Z,4.22
2022-12-08T09:55:55.620Z,3.92
2022-12-08T09:58:31.717Z,4.20
2022-12-08T10:00:58.509Z,3.72
2022-12-08T10:03:29.366Z,4.00
2022-12-08T10:06:33.379Z,3.92
2022-12-08T10:09:17.171Z,4.60
2022-12-08T10:12:05.381Z,4.10
2022-12-08T10:14:43.598Z,4.05
2022-12-08T10:17:26.666Z,4.70
2022-12-08T10:20:15.998Z,5.55
2022-12-08T10:22:44.979Z,6.45
2022-12-08T10:25:28.525Z,6.60
2022-12-08T10:28:00.870Z,5.60
2022-12-08T10:30:27.256Z,4.93
2022-12-08T10:32:53.923Z,5.05
2022-12-08T10:35:23.504Z,3.63
2022-12-08T10:37:58.312Z,3.60
2022-12-08T10:40:28.745Z,3.85
2022-12-08T10:42:57.667Z,3.80
2022-12-08T10:45:26.832Z,3.80
2022-12-08T10:48:00.989Z,3.47
2022-12-08T10:50:36.824Z,3.15
2022-12-08T10:53:09.050Z,3.80
2022-12-08T10:55:51.283Z,3.10
2022-12-08T10:58:32.665Z,2.58
2022-12-08T11:01:13.337Z,2.20
2022-12-08T11:03:48.534Z,2.20
2022-12-08T11:06:22.344Z,1.90
2022-12-08T11:08:52.826Z,2.13
2022-12-08T11:11:27.493Z,1.60
2022-12-08T11:13:56.292Z,1.70
2022-12-08T11:16:23.575Z,1.90
2022-12-08T11:18:56.724Z,1.90
2022-12-08T11:21:36.412Z,1.80
2022-12-08T11:24:23.793Z,2.10
2022-12-08T11:26:54.818Z,2.10
2022-12-08T11:29:22.013Z,2.50
2022-12-08T11:31:54.653Z,2.40
2022-12-08T11:34:53.196Z,2.13
2022-12-08T11:37:34.482Z,2.95
2022-12-08T11:40:07.127Z,2.20
2022-12-08T11:42:44.207Z,2.10
2022-12-08T11:45:20.262Z,2.00
2022-12-08T11:47:56.146Z,1.50
2022-12-08T11:50:29.439Z,1.30
2022-12-08T11:52:58.543Z,1.00
2022-12-08T11:55:48.099Z,1.00
2022-12-08T11:58:36.207Z,1.13
2022-12-08T12:01:02.789Z,1.30
2022-12-08T12:03:44.436Z,2.90
2022-12-08T12:07:00.358Z,4.10
2022-12-08T12:09:45.774Z,5.00
2022-12-08T12:12:41.171Z,3.38
2022-12-08T12:15:43.517Z,3.83
2022-12-08T12:18:22.305Z,3.30
2022-12-08T12:21:20.191Z,4.43
2022-12-08T12:23:57.672Z,6.45
2022-12-08T12:26:28.125Z,5.85
2022-12-08T12:29:07.659Z,4.53
2022-12-08T12:31:40.326Z,6.13
2022-12-08T12:34:21.329Z,3.25
2022-12-08T12:36:55.653Z,3.20
2022-12-08T12:39:29.325Z,2.95
2022-12-08T12:42:01.585Z,2.60
2022-12-08T12:44:27.937Z,2.78
2022-12-08T12:46:57.438Z,3.20
2022-12-08T12:49:38.988Z,2.33
2022-12-08T12:52:17.279Z,2.30
2022-12-08T12:54:45.508Z,3.03
2022-12-08T12:57:11.823Z,2.42
2022-12-08T12:59:55.488Z,2.70
2022-12-08T13:02:31.366Z,3.47
2022-12-08T13:05:14.961Z,2.92
2022-12-08T13:08:01.038Z,3.30
2022-12-08T13:10:32.317Z,3.28
2022-12-08T13:13:10.979Z,3.97
2022-12-08T13:15:41.644Z,3.67
2022-12-08T13:18:28.619Z,2.40
2022-12-08T13:21:04.263Z,2.67
2022-12-08T13:23:36.896Z,2.55
2022-12-08T13:26:11.020Z,4.50
2022-12-08T13:28:59.390Z,3.33
2022-12-08T13:31:52.220Z,3.03
2022-12-08T13:34:59.880Z,2.93
2022-12-08T13:37:42.183Z,2.65
2022-12-08T13:40:19.087Z,2.50
2022-12-08T13:43:05.933Z,2.70
2022-12-08T13:46:18.331Z,2.10
2022-12-08T13:49:32.059Z,3.10
2022-12-08T13:57:27.940Z,2.10
2022-12-08T13:59:54.414Z,2.70
2022-12-08T14:02:33.028Z,2.70
2022-12-08T14:07:48.405Z,3.90
2022-12-08T14:10:22.315Z,3.40
2022-12-08T14:12:55.976Z,3.45
2022-12-08T14:15:22.562Z,3.40
2022-12-08T14:17:54.711Z,5.07
2022-12-08T14:20:33.837Z,3.10
2022-12-08T14:23:08.904Z,8.73
2022-12-08T14:25:35.776Z,2.30
2022-12-08T14:28:04.141Z,2.37
2022-12-08T14:30:32.508Z,2.20
2022-12-08T14:33:00.872Z,1.92
2022-12-08T14:35:33.250Z,2.80
2022-12-08T14:38:05.698Z,2.25
2022-12-08T14:40:38.914Z,3.13
2022-12-08T14:43:08.246Z,3.60
2022-12-08T14:45:45.155Z,3.53
2022-12-08T14:48:32.840Z,3.72
2022-12-08T14:51:12.502Z,3.72
2022-12-08T14:53:42.383Z,3.03
2022-12-08T14:56:17.979Z,3.10
2022-12-08T14:58:44.772Z,2.33
2022-12-08T15:01:14.753Z,2.58
2022-12-08T15:03:44.625Z,2.80
2022-12-08T15:06:13.933Z,3.50
2022-12-08T15:08:57.459Z,4.10
2022-12-08T15:11:23.874Z,2.80
2022-12-08T15:13:52.939Z,7.50
2022-12-08T15:16:38.663Z,6.55
2022-12-08T15:19:27.266Z,4.87
2022-12-08T15:21:55.378Z,3.65
2022-12-08T15:24:25.706Z,4.53
2022-12-08T15:26:52.996Z,3.30
2022-12-08T15:29:28.037Z,3.80
2022-12-08T15:31:57.894Z,4.77
2022-12-08T15:34:24.843Z,4.70
2022-12-08T15:36:53.236Z,4.20
2022-12-08T15:39:28.497Z,4.53
2022-12-08T15:41:54.943Z,4.32
2022-12-08T15:44:21.355Z,4.07
2022-12-08T15:46:47.835Z,3.67
2022-12-08T15:49:17.928Z,4.05
2022-12-08T15:51:45.194Z,5.20
2022-12-08T15:54:11.866Z,4.32
2022-12-08T15:57:02.974Z,7.03
2022-12-08T15:59:28.991Z,5.15
2022-12-08T16:01:55.419Z,5.50
2022-12-08T16:05:25.232Z,5.63
2022-12-08T16:07:27.394Z,6.85
2022-12-08T16:09:54.952Z,8.20
2022-12-08T16:12:25.478Z,6.70
2022-12-08T16:17:40.184Z,7.03
2022-12-08T16:20:13.153Z,8.77
2022-12-08T16:23:03.600Z,8.03
2022-12-08T16:25:26.654Z,9.25
2022-12-08T16:28:02.846Z,11.02
2022-12-08T16:30:35.216Z,11.88
2022-12-08T16:33:01.919Z,7.85
2022-12-08T16:35:28.682Z,7.93
2022-12-08T16:37:55.240Z,7.88
2022-12-08T16:40:22.055Z,8.57
2022-12-08T16:42:48.867Z,8.25
2022-12-08T16:45:21.338Z,6.45
2022-12-08T16:47:57.372Z,8.90
2022-12-08T16:50:33.113Z,7.50
2022-12-08T16:53:03.287Z,8.20
2022-12-08T16:55:30.303Z,9.30
2022-12-08T16:57:57.275Z,10.80
2022-12-08T17:00:26.019Z,8.23
2022-12-08T17:02:53.534Z,8.27
2022-12-08T17:05:21.968Z,8.48
2022-12-08T17:07:50.534Z,11.70
2022-12-08T17:10:23.613Z,10.30
2022-12-08T17:12:51.188Z,8.30
2022-12-08T17:15:20.912Z,8.23
2022-12-08T17:17:47.549Z,8.77
2022-12-08T17:20:34.243Z,14.27
2022-12-08T17:23:00.675Z,11.27
2022-12-08T17:25:27.422Z,15.37
2022-12-08T17:27:54.417Z,12.13
2022-12-08T17:30:20.963Z,12.68
2022-12-08T17:32:47.537Z,11.73
2022-12-08T17:35:13.998Z,11.13
2022-12-08T17:37:40.836Z,13.07
2022-12-08T17:40:08.244Z,10.85
2022-12-08T17:42:34.763Z,10.95
2022-12-08T17:45:01.173Z,13.02
2022-12-08T17:47:27.648Z,16.15
2022-12-08T17:49:54.039Z,15.83
2022-12-08T17:52:20.463Z,17.80
2022-12-08T17:54:46.896Z,17.40
2022-12-08T17:57:13.343Z,17.13
2022-12-08T17:59:39.969Z,15.98
2022-12-08T18:02:06.717Z,12.80
2022-12-08T18:04:33.211Z,16.23
2022-12-08T18:06:59.631Z,12.70
2022-12-08T18:09:26.156Z,13.18
2022-12-08T18:11:52.709Z,21.30
2022-12-08T18:14:19.152Z,19.93
2022-12-08T18:16:46.735Z,15.10
2022-12-08T18:19:14.420Z,13.38
2022-12-08T18:21:42.021Z,12.80
2022-12-08T18:24:15.200Z,16.70
2022-12-08T18:26:41.588Z,17.17
2022-12-08T18:29:08.046Z,17.63
2022-12-08T18:31:34.468Z,19.88
2022-12-08T18:34:00.897Z,19.10
2022-12-08T18:36:27.329Z,13.25
2022-12-08T18:38:53.830Z,11.30
2022-12-08T18:41:23.423Z,15.05
2022-12-08T18:43:50.639Z,9.23
2022-12-08T18:46:17.098Z,6.82
2022-12-08T18:48:47.503Z,7.35
2022-12-08T18:51:16.826Z,9.67
2022-12-08T18:53:44.379Z,12.35
2022-12-08T18:56:27.612Z,11.32
2022-12-08T18:59:01.280Z,12.38
2022-12-08T19:01:30.191Z,8.15
2022-12-08T19:06:47.548Z,18.58
2022-12-08T19:09:14.003Z,12.57
2022-12-08T19:11:41.917Z,15.10
2022-12-08T19:14:09.142Z,9.38
2022-12-08T19:16:35.999Z,7.90
2022-12-08T19:19:03.393Z,9.55
2022-12-08T19:21:32.206Z,12.45
2022-12-08T19:23:58.579Z,14.32
2022-12-08T19:26:27.183Z,11.95
2022-12-08T19:28:53.956Z,12.27
2022-12-08T19:31:20.655Z,12.85
2022-12-08T19:33:47.098Z,14.15
2022-12-08T19:36:16.715Z,14.88
2022-12-08T19:38:43.505Z,16.05
2022-12-08T19:41:10.130Z,18.63
2022-12-08T19:43:36.659Z,20.40
2022-12-08T19:46:03.232Z,20.20
2022-12-08T19:48:29.824Z,17.95
2022-12-08T19:50:56.959Z,20.60
2022-12-08T19:53:23.724Z,18.70
2022-12-08T19:55:50.734Z,18.15
2022-12-08T19:58:17.392Z,19.42
2022-12-08T20:00:43.804Z,17.98
2022-12-08T20:03:15.058Z,16.55
2022-12-08T20:05:42.203Z,15.87
2022-12-08T20:08:09.361Z,15.95
2022-12-08T20:10:38.653Z,14.93
2022-12-08T20:13:06.168Z,13.68
2022-12-08T20:15:32.689Z,12.68
2022-12-08T20:17:59.182Z,11.60
2022-12-08T20:20:25.580Z,11.18
2022-12-08T20:22:51.983Z,10.75
2022-12-08T20:25:19.029Z,10.43
2022-12-08T20:27:45.736Z,9.50
2022-12-08T20:30:17.013Z,10.77
2022-12-08T20:32:44.184Z,11.20
2022-12-08T20:35:10.656Z,9.50
2022-12-08T20:37:37.116Z,10.15
2022-12-08T20:40:04.745Z,11.30
2022-12-08T20:42:31.220Z,11.30
2022-12-08T20:44:57.675Z,10.32
2022-12-08T20:47:24.303Z,10.80
2022-12-08T20:49:50.949Z,11.05
2022-12-08T20:52:18.488Z,10.55
2022-12-08T20:54:45.050Z,11.40
2022-12-08T20:57:11.646Z,11.23
2022-12-08T20:59:38.366Z,10.68
2022-12-08T21:02:04.965Z,11.57
2022-12-08T21:04:31.603Z,11.25
2022-12-08T21:06:58.155Z,11.13
2022-12-08T21:09:24.785Z,11.00
2022-12-08T21:11:51.307Z,11.27
2022-12-08T21:14:17.975Z,11.48
2022-12-08T21:16:44.580Z,12.07
2022-12-08T21:19:11.988Z,12.13
2022-12-08T21:21:38.791Z,12.52
2022-12-08T21:24:05.773Z,13.13
2022-12-08T21:26:32.453Z,12.63
2022-12-08T21:28:59.086Z,13.18
2022-12-08T21:31:26.030Z,12.83
2022-12-08T21:33:52.955Z,13.30
2022-12-08T21:36:21.296Z,13.57
2022-12-08T21:38:48.360Z,14.13
2022-12-08T21:41:18.024Z,13.65
2022-12-08T21:43:44.490Z,12.43
2022-12-08T21:46:15.685Z,13.20
2022-12-08T21:48:42.590Z,13.85
2022-12-08T21:51:09.283Z,15.00
2022-12-08T21:53:35.820Z,13.75
2022-12-08T21:56:02.294Z,14.00
2022-12-08T21:58:28.911Z,14.60
2022-12-08T22:00:55.645Z,15.00
2022-12-08T22:03:22.511Z,14.98
2022-12-08T22:05:49.047Z,14.95
2022-12-08T22:08:15.672Z,14.60
2022-12-08T22:10:47.319Z,15.52
2022-12-08T22:13:13.925Z,16.05
2022-12-08T22:15:40.358Z,15.98
2022-12-08T22:18:06.984Z,15.95
2022-12-08T22:20:33.758Z,17.10
2022-12-08T22:23:00.263Z,17.52
2022-12-08T22:25:26.832Z,19.55
2022-12-08T22:27:53.241Z,17.40
2022-12-08T22:30:19.899Z,17.48
2022-12-08T22:32:46.612Z,18.60
2022-12-08T22:35:13.159Z,17.98
2022-12-08T22:37:39.523Z,17.98
2022-12-08T22:40:07.497Z,17.38
2022-12-08T22:42:34.135Z,17.88
2022-12-08T22:45:00.613Z,17.87
2022-12-08T22:47:27.259Z,19.30
2022-12-08T22:49:53.677Z,19.35
2022-12-08T22:52:20.251Z,18.08
2022-12-08T22:54:46.809Z,17.83
2022-12-08T22:57:13.319Z,17.30
2022-12-08T22:59:39.772Z,17.75
2022-12-08T23:02:07.486Z,17.98
2022-12-08T23:04:34.791Z,17.67
2022-12-08T23:07:02.032Z,18.58
2022-12-08T23:09:28.517Z,17.30
2022-12-08T23:11:55.786Z,18.67
2022-12-08T23:14:22.656Z,16.67
2022-12-08T23:16:49.245Z,16.73
2022-12-08T23:19:15.765Z,16.92
2022-12-08T23:21:42.284Z,17.80
2022-12-08T23:24:08.730Z,17.73
2022-12-08T23:26:35.451Z,17.35
2022-12-08T23:29:02.308Z,16.88
2022-12-08T23:31:29.071Z,17.83
2022-12-08T23:33:56.068Z,17.10
2022-12-08T23:36:23.638Z,17.80
2022-12-08T23:38:50.106Z,17.27
2022-12-08T23:41:16.788Z,17.75
2022-12-08T23:43:51.365Z,16.98
2022-12-08T23:46:20.277Z,17.00
2022-12-08T23:48:47.382Z,16.67
2022-12-08T23:51:14.543Z,17.50
2022-12-08T23:53:41.590Z,15.55
2022-12-08T23:56:11.168Z,16.20
2022-12-08T23:58:38.033Z,14.53
